createdAt,value
2023-02-01T00:01:23.863Z,3.80
2023-02-01T00:03:50.789Z,3.80
2023-02-01T00:06:17.606Z,3.70
2023-02-01T00:08:44.409Z,3.60
2023-02-01T00:11:12.440Z,3.50
2023-02-01T00:13:41.832Z,3.40
2023-02-01T00:16:17.671Z,3.30
2023-02-01T00:18:49.870Z,3.20
2023-02-01T00:21:19.833Z,3.20
2023-02-01T00:23:47.099Z,3.20
2023-02-01T00:26:31.117Z,3.10
2023-02-01T00:28:57.996Z,3.10
2023-02-01T00:31:25.678Z,3.10
2023-02-01T00:33:53.897Z,3.10
2023-02-01T00:36:21.116Z,3.10
2023-02-01T00:38:48.473Z,2.90
2023-02-01T00:41:21.019Z,2.90
2023-02-01T00:43:48.738Z,2.90
2023-02-01T00:46:17.759Z,2.90
2023-02-01T00:48:44.973Z,2.90
2023-02-01T00:51:17.397Z,2.90
2023-02-01T00:53:44.450Z,2.90
2023-02-01T00:56:11.812Z,3.00
2023-02-01T00:58:38.773Z,3.00
2023-02-01T01:01:05.690Z,3.10
2023-02-01T01:03:34.479Z,3.20
2023-02-01T01:06:03.933Z,3.30
2023-02-01T01:08:30.767Z,3.40
2023-02-01T01:10:57.734Z,3.50
2023-02-01T01:13:24.878Z,3.60
2023-02-01T01:15:51.786Z,3.60
2023-02-01T01:18:19.575Z,3.70
2023-02-01T01:20:46.339Z,3.80
2023-02-01T01:23:13.303Z,3.90
2023-02-01T01:25:40.839Z,4.00
2023-02-01T01:28:08.429Z,4.00
2023-02-01T01:30:36.263Z,4.20
2023-02-01T01:33:03.519Z,4.30
2023-02-01T01:35:34.139Z,4.30
2023-02-01T01:38:01.788Z,4.40
2023-02-01T01:40:29.556Z,4.50
2023-02-01T01:42:57.468Z,4.60
2023-02-01T01:45:30.738Z,4.60
2023-02-01T01:48:00.544Z,4.70
2023-02-01T01:50:37.108Z,4.70
2023-02-01T01:53:08.198Z,4.80
2023-02-01T01:55:40.366Z,4.80
2023-02-01T01:58:12.786Z,4.80
2023-02-01T02:00:40.213Z,4.90
2023-02-01T02:03:20.458Z,4.90
2023-02-01T02:05:50.006Z,4.90
2023-02-01T02:08:17.737Z,5.00
2023-02-01T02:11:02.743Z,5.00
2023-02-01T02:13:39.181Z,5.00
2023-02-01T02:16:30.301Z,5.00
2023-02-01T02:19:21.088Z,5.10
2023-02-01T02:22:13.833Z,5.10
2023-02-01T02:25:18.514Z,5.10
2023-02-01T02:27:45.180Z,5.10
2023-02-01T02:38:33.788Z,5.20
2023-02-01T02:41:40.294Z,5.20
2023-02-01T02:44:43.915Z,5.20
2023-02-01T02:47:24.806Z,5.10
2023-02-01T02:50:18.517Z,5.10
2023-02-01T02:53:37.657Z,5.00
2023-02-01T02:56:26.873Z,4.90
2023-02-01T02:59:13.208Z,4.90
2023-02-01T03:04:59.550Z,5.00
2023-02-01T03:07:45.771Z,5.00
2023-02-01T03:10:34.953Z,4.90
2023-02-01T03:13:06.879Z,4.90
2023-02-01T03:15:55.673Z,4.90
2023-02-01T03:18:39.744Z,4.90
2023-02-01T03:21:13.687Z,4.90
2023-02-01T03:23:41.145Z,4.90
2023-02-01T03:26:14.313Z,4.90
2023-02-01T03:28:46.427Z,4.90
2023-02-01T03:31:15.090Z,4.80
2023-02-01T03:33:43.116Z,4.80
2023-02-01T03:36:23.960Z,4.80
2023-02-01T03:39:03.051Z,4.80
2023-02-01T03:41:43.832Z,4.70
2023-02-01T03:44:19.485Z,4.80
2023-02-01T03:46:58.942Z,4.80
2023-02-01T03:49:43.989Z,4.80
2023-02-01T03:52:17.220Z,4.80
2023-02-01T03:54:46.031Z,4.80
2023-02-01T03:57:17.511Z,4.80
2023-02-01T03:59:46.521Z,4.90
2023-02-01T04:02:13.721Z,4.90
2023-02-01T04:04:40.521Z,4.90
2023-02-01T04:07:07.969Z,4.90
2023-02-01T04:09:34.709Z,4.90
2023-02-01T04:12:01.565Z,4.90
2023-02-01T04:14:28.303Z,4.90
2023-02-01T04:16:55.257Z,4.90
2023-02-01T04:19:22.163Z,4.90
2023-02-01T04:21:48.816Z,4.90
2023-02-01T04:24:15.648Z,4.90
2023-02-01T04:26:42.467Z,4.90
2023-02-01T04:29:11.009Z,4.90
2023-02-01T04:31:37.945Z,4.80
2023-02-01T04:34:04.802Z,4.80
2023-02-01T04:36:31.670Z,4.80
2023-02-01T04:38:58.478Z,4.80
2023-02-01T04:41:25.276Z,4.80
2023-02-01T04:43:53.572Z,4.80
2023-02-01T04:46:20.348Z,4.90
2023-02-01T04:48:47.106Z,4.80
2023-02-01T04:51:14.226Z,4.90
2023-02-01T04:53:41.066Z,4.90
2023-02-01T04:56:08.174Z,4.90
2023-02-01T04:58:34.928Z,4.90
2023-02-01T05:01:05.544Z,4.90
2023-02-01T05:03:33.641Z,4.90
2023-02-01T05:06:01.211Z,4.90
2023-02-01T05:08:29.818Z,4.90
2023-02-01T05:10:56.715Z,4.90
2023-02-01T05:13:42.017Z,4.90
2023-02-01T05:16:08.821Z,5.00
2023-02-01T05:18:35.668Z,5.00
2023-02-01T05:21:02.928Z,5.00
2023-02-01T05:23:29.809Z,5.00
2023-02-01T05:26:01.592Z,5.00
2023-02-01T05:28:29.315Z,5.00
2023-02-01T05:30:56.155Z,5.00
2023-02-01T05:33:23.116Z,5.10
2023-02-01T05:35:51.406Z,5.10
2023-02-01T05:38:18.239Z,5.20
2023-02-01T05:40:50.481Z,5.30
2023-02-01T05:43:17.585Z,5.30
2023-02-01T05:45:44.331Z,5.20
2023-02-01T05:48:11.113Z,5.30
2023-02-01T05:50:38.583Z,5.30
2023-02-01T05:53:09.408Z,5.30
2023-02-01T05:55:36.961Z,5.30
2023-02-01T05:58:04.432Z,5.30
2023-02-01T06:00:31.672Z,5.30
2023-02-01T06:02:58.581Z,5.30
2023-02-01T06:05:25.797Z,5.30
2023-02-01T06:07:55.137Z,5.20
2023-02-01T06:10:22.197Z,5.30
2023-02-01T06:12:49.205Z,5.20
2023-02-01T06:15:19.604Z,5.20
2023-02-01T06:17:47.298Z,5.20
2023-02-01T06:20:15.958Z,5.20
2023-02-01T06:22:42.668Z,5.10
2023-02-01T06:25:11.188Z,5.20
2023-02-01T06:27:39.448Z,5.20
2023-02-01T06:30:07.473Z,5.30
2023-02-01T06:32:34.893Z,5.30
2023-02-01T06:35:01.696Z,5.30
2023-02-01T06:37:31.450Z,5.30
2023-02-01T06:39:58.432Z,5.30
2023-02-01T06:42:25.261Z,5.40
2023-02-01T06:44:52.366Z,5.40
2023-02-01T06:47:19.281Z,5.30
2023-02-01T06:49:46.029Z,5.30
2023-02-01T06:52:12.777Z,5.20
2023-02-01T06:54:39.513Z,5.20
2023-02-01T06:57:06.170Z,5.20
2023-02-01T06:59:32.960Z,5.30
2023-02-01T07:01:59.725Z,5.30
2023-02-01T07:04:26.764Z,5.30
2023-02-01T07:06:53.587Z,5.30
2023-02-01T07:09:20.443Z,5.30
2023-02-01T07:11:47.173Z,5.30
2023-02-01T07:14:14.261Z,5.30
2023-02-01T07:16:41.064Z,5.30
2023-02-01T07:19:08.608Z,5.30
2023-02-01T07:21:35.424Z,5.30
2023-02-01T07:24:02.229Z,5.40
2023-02-01T07:26:28.995Z,5.40
2023-02-01T07:28:55.908Z,5.40
2023-02-01T07:31:23.238Z,5.50
2023-02-01T07:33:53.941Z,5.40
2023-02-01T07:36:20.756Z,5.50
2023-02-01T07:38:50.392Z,5.50
2023-02-01T07:41:18.433Z,5.60
2023-02-01T07:43:45.476Z,5.60
2023-02-01T07:46:12.498Z,5.50
2023-02-01T07:48:39.489Z,5.60
2023-02-01T07:51:12.490Z,5.60
2023-02-01T07:53:39.654Z,5.70
2023-02-01T07:56:13.089Z,5.70
2023-02-01T07:58:40.557Z,5.70
2023-02-01T08:01:21.295Z,5.70
2023-02-01T08:03:54.398Z,5.70
2023-02-01T08:06:21.291Z,5.70
2023-02-01T08:08:49.518Z,5.70
2023-02-01T08:11:16.755Z,5.70
2023-02-01T08:13:44.079Z,5.70
2023-02-01T08:16:12.518Z,5.70
2023-02-01T08:18:40.354Z,5.60
2023-02-01T08:21:13.672Z,5.70
2023-02-01T08:23:42.037Z,5.80
2023-02-01T08:26:18.647Z,5.80
2023-02-01T08:28:48.905Z,5.80
2023-02-01T08:31:18.368Z,5.80
2023-02-01T08:33:50.172Z,5.90
2023-02-01T08:36:17.014Z,5.90
2023-02-01T08:38:43.798Z,5.90
2023-02-01T08:41:13.185Z,5.80
2023-02-01T08:43:40.752Z,5.80
2023-02-01T08:46:08.439Z,5.80
2023-02-01T08:48:35.898Z,5.80
2023-02-01T08:51:11.333Z,5.90
2023-02-01T08:53:38.842Z,6.00
2023-02-01T08:56:06.381Z,6.00
2023-02-01T08:58:33.286Z,6.10
2023-02-01T09:01:13.560Z,6.20
2023-02-01T09:03:41.237Z,6.30
2023-02-01T09:06:11.229Z,6.30
2023-02-01T09:08:39.306Z,6.30
2023-02-01T09:11:09.138Z,6.40
2023-02-01T09:13:36.599Z,6.40
2023-02-01T09:16:04.637Z,6.30
2023-02-01T09:18:31.788Z,6.30
2023-02-01T09:20:58.672Z,6.30
2023-02-01T09:23:25.422Z,6.30
2023-02-01T09:25:52.514Z,6.30
2023-02-01T09:28:20.178Z,6.30
2023-02-01T09:30:47.491Z,6.30
2023-02-01T09:33:14.350Z,6.30
2023-02-01T09:35:41.093Z,6.30
2023-02-01T09:38:07.879Z,6.30
2023-02-01T09:40:36.410Z,6.30
2023-02-01T09:43:11.031Z,6.30
2023-02-01T09:45:46.722Z,6.30
2023-02-01T09:48:21.388Z,6.30
2023-02-01T09:50:59.143Z,6.30
2023-02-01T09:53:53.626Z,6.30
2023-02-01T09:56:25.561Z,6.40
2023-02-01T09:59:32.070Z,6.40
2023-02-01T10:02:00.657Z,6.40
2023-02-01T10:04:27.708Z,6.40
2023-02-01T10:07:11.906Z,6.50
2023-02-01T10:09:56.893Z,6.50
2023-02-01T10:12:46.610Z,6.60
2023-02-01T10:15:25.891Z,6.60
2023-02-01T10:18:19.832Z,6.60
2023-02-01T10:21:01.630Z,6.60
2023-02-01T10:23:47.014Z,6.60
2023-02-01T10:26:18.863Z,6.70
2023-02-01T10:28:49.624Z,6.70
2023-02-01T10:31:18.664Z,6.80
2023-02-01T10:33:52.331Z,6.90
2023-02-01T10:36:43.193Z,6.90
2023-02-01T10:39:13.000Z,7.00
2023-02-01T10:41:41.188Z,7.00
2023-02-01T10:44:13.971Z,6.90
2023-02-01T10:46:40.990Z,6.90
2023-02-01T10:49:17.406Z,6.90
2023-02-01T10:52:01.048Z,6.80
2023-02-01T10:54:38.972Z,6.80
2023-02-01T10:57:24.672Z,6.80
2023-02-01T10:59:51.436Z,6.70
2023-02-01T11:02:32.599Z,6.80
2023-02-01T11:05:07.234Z,6.90
2023-02-01T11:07:34.312Z,6.80
2023-02-01T11:10:01.157Z,6.80
2023-02-01T11:12:33.083Z,6.90
2023-02-01T11:15:13.280Z,6.80
2023-02-01T11:17:49.161Z,7.00
2023-02-01T11:20:40.909Z,7.10
2023-02-01T11:23:16.781Z,7.30
2023-02-01T11:25:54.536Z,7.20
2023-02-01T11:28:27.834Z,7.20
2023-02-01T11:30:57.880Z,7.10
2023-02-01T11:33:36.188Z,7.00
2023-02-01T11:36:21.523Z,6.90
2023-02-01T11:39:12.142Z,6.90
2023-02-01T11:41:44.788Z,7.00
2023-02-01T11:44:39.182Z,7.00
2023-02-01T11:47:29.046Z,7.10
2023-02-01T11:49:57.177Z,7.20
2023-02-01T11:52:49.459Z,7.30
2023-02-01T11:55:57.172Z,7.30
2023-02-01T11:58:50.874Z,7.20
2023-02-01T12:01:39.367Z,7.20
2023-02-01T12:04:21.500Z,7.20
2023-02-01T12:07:04.810Z,7.20
2023-02-01T12:09:46.732Z,7.20
2023-02-01T12:12:25.902Z,7.10
2023-02-01T12:15:20.885Z,7.10
2023-02-01T12:18:15.300Z,7.10
2023-02-01T12:21:05.906Z,7.20
2023-02-01T12:24:10.524Z,7.10
2023-02-01T12:27:18.923Z,7.10
2023-02-01T12:30:21.402Z,7.10
2023-02-01T12:33:02.077Z,7.10
2023-02-01T12:35:55.261Z,7.00
2023-02-01T12:38:43.321Z,7.10
2023-02-01T12:41:34.176Z,7.10
2023-02-01T12:44:10.224Z,7.10
2023-02-01T12:46:45.028Z,7.00
2023-02-01T12:49:21.702Z,7.00
2023-02-01T12:51:51.151Z,7.00
2023-02-01T12:54:40.073Z,6.90
2023-02-01T12:57:16.109Z,6.90
2023-02-01T12:59:56.598Z,6.90
2023-02-01T13:02:30.660Z,6.80
2023-02-01T13:05:19.995Z,6.80
2023-02-01T13:07:57.948Z,6.80
2023-02-01T13:10:39.211Z,6.80
2023-02-01T13:13:18.521Z,6.80
2023-02-01T13:15:50.510Z,6.80
2023-02-01T13:18:22.584Z,6.80
2023-02-01T13:21:30.011Z,6.80
2023-02-01T13:23:56.897Z,6.90
2023-02-01T13:26:23.729Z,6.90
2023-02-01T13:29:05.044Z,6.90
2023-02-01T13:31:50.592Z,6.90
2023-02-01T13:34:43.926Z,7.00
2023-02-01T13:37:56.115Z,6.90
2023-02-01T13:40:44.019Z,7.00
2023-02-01T13:43:20.349Z,7.10
2023-02-01T13:45:51.953Z,7.20
2023-02-01T13:48:47.756Z,7.30
2023-02-01T13:51:15.333Z,7.30
2023-02-01T13:53:50.054Z,7.40
2023-02-01T13:56:21.055Z,7.30
2023-02-01T13:58:49.530Z,7.30
2023-02-01T14:01:22.477Z,7.30
2023-02-01T14:03:50.152Z,7.10
2023-02-01T14:06:47.279Z,7.00
2023-02-01T14:09:20.748Z,7.00
2023-02-01T14:11:56.083Z,6.90
2023-02-01T14:14:24.681Z,6.90
2023-02-01T14:16:54.870Z,6.90
2023-02-01T14:19:23.563Z,6.80
2023-02-01T14:21:59.723Z,6.80
2023-02-01T14:24:37.713Z,6.70
2023-02-01T14:27:20.839Z,6.60
2023-02-01T14:30:02.120Z,6.60
2023-02-01T14:32:35.683Z,6.70
2023-02-01T14:35:07.454Z,6.70
2023-02-01T14:37:39.507Z,6.70
2023-02-01T14:40:13.856Z,6.70
2023-02-01T14:42:45.413Z,6.80
2023-02-01T14:45:24.868Z,6.80
2023-02-01T14:47:51.890Z,6.80
2023-02-01T14:50:38.957Z,6.80
2023-02-01T14:53:05.668Z,6.90
2023-02-01T14:55:48.508Z,6.90
2023-02-01T14:58:30.948Z,6.80
2023-02-01T15:01:19.780Z,6.80
2023-02-01T15:04:23.023Z,6.90
2023-02-01T15:07:05.136Z,6.80
2023-02-01T15:09:44.136Z,6.70
2023-02-01T15:12:15.672Z,6.80
2023-02-01T15:15:04.186Z,6.70
2023-02-01T15:17:38.279Z,6.60
2023-02-01T15:20:18.832Z,6.60
2023-02-01T15:23:01.105Z,6.60
2023-02-01T15:25:37.778Z,6.60
2023-02-01T15:28:06.950Z,6.60
2023-02-01T15:30:36.159Z,6.50
2023-02-01T15:33:17.903Z,6.50
2023-02-01T15:35:50.256Z,6.50
2023-02-01T15:38:33.034Z,6.50
2023-02-01T15:41:16.426Z,6.50
2023-02-01T15:43:46.084Z,6.40
2023-02-01T15:46:15.877Z,6.40
2023-02-01T15:48:46.528Z,6.40
2023-02-01T15:51:18.542Z,6.30
2023-02-01T15:53:48.649Z,6.40
2023-02-01T15:56:16.104Z,6.40
2023-02-01T15:58:45.778Z,6.40
2023-02-01T16:01:14.719Z,6.40
2023-02-01T16:03:45.551Z,6.40
2023-02-01T16:06:21.537Z,6.40
2023-02-01T16:08:55.743Z,6.40
2023-02-01T16:11:34.110Z,6.40
2023-02-01T16:14:01.883Z,6.30
2023-02-01T16:16:30.215Z,6.30
2023-02-01T16:18:57.171Z,6.40
2023-02-01T16:21:24.885Z,6.40
2023-02-01T16:23:52.959Z,6.40
2023-02-01T16:26:20.826Z,6.40
2023-02-01T16:28:47.940Z,6.40
2023-02-01T16:31:20.497Z,6.40
2023-02-01T16:33:51.913Z,6.50
2023-02-01T16:36:19.740Z,6.40
2023-02-01T16:38:48.912Z,6.40
2023-02-01T16:41:18.248Z,6.40
2023-02-01T16:43:45.609Z,6.30
2023-02-01T16:46:21.530Z,6.30
2023-02-01T16:48:54.738Z,6.20
2023-02-01T16:51:22.602Z,6.30
2023-02-01T16:53:54.496Z,6.20
2023-02-01T16:56:24.239Z,6.10
2023-02-01T16:58:51.415Z,6.10
2023-02-01T17:01:19.910Z,6.00
2023-02-01T17:03:47.157Z,6.00
2023-02-01T17:06:17.390Z,6.00
2023-02-01T17:08:47.309Z,6.00
2023-02-01T17:11:14.941Z,5.90
2023-02-01T17:13:42.638Z,6.00
2023-02-01T17:16:29.058Z,6.00
2023-02-01T17:18:59.388Z,6.00
2023-02-01T17:21:29.700Z,6.00
2023-02-01T17:23:58.829Z,6.00
2023-02-01T17:26:26.007Z,6.10
2023-02-01T17:28:53.092Z,6.10
2023-02-01T17:31:19.981Z,6.10
2023-02-01T17:33:46.800Z,6.20
2023-02-01T17:36:17.312Z,6.10
2023-02-01T17:38:50.899Z,6.20
2023-02-01T17:41:20.671Z,6.20
2023-02-01T17:43:48.279Z,6.10
2023-02-01T17:46:18.822Z,6.20
2023-02-01T17:48:45.667Z,6.20
2023-02-01T17:51:17.200Z,6.20
2023-02-01T17:53:45.935Z,6.20
2023-02-01T17:56:15.736Z,6.20
2023-02-01T17:58:42.833Z,6.20
2023-02-01T18:01:24.538Z,6.30
2023-02-01T18:03:51.983Z,6.30
2023-02-01T18:06:22.333Z,6.30
2023-02-01T18:08:49.417Z,6.40
2023-02-01T18:11:18.798Z,6.40
2023-02-01T18:13:46.481Z,6.40
2023-02-01T18:16:25.158Z,6.50
2023-02-01T18:18:52.455Z,6.50
2023-02-01T18:21:22.054Z,6.50
2023-02-01T18:23:49.717Z,6.50
2023-02-01T18:26:18.766Z,6.60
2023-02-01T18:28:45.668Z,6.60
2023-02-01T18:31:24.727Z,6.70
2023-02-01T18:33:53.322Z,6.70
2023-02-01T18:36:20.483Z,6.70
2023-02-01T18:38:47.361Z,6.70
2023-02-01T18:41:16.571Z,6.70
2023-02-01T18:43:44.010Z,6.70
2023-02-01T18:46:11.810Z,6.70
2023-02-01T18:48:39.034Z,6.70
2023-02-01T18:51:05.937Z,6.70
2023-02-01T18:53:33.199Z,6.70
2023-02-01T18:56:00.046Z,6.70
2023-02-01T18:58:27.152Z,6.60
2023-02-01T19:00:55.737Z,6.60
2023-02-01T19:03:26.621Z,6.60
2023-02-01T19:05:57.363Z,6.50
2023-02-01T19:08:25.676Z,6.50
2023-02-01T19:10:53.457Z,6.60
2023-02-01T19:13:23.433Z,6.40
2023-02-01T19:15:50.650Z,6.40
2023-02-01T19:18:20.217Z,6.40
2023-02-01T19:20:50.790Z,6.30
2023-02-01T19:23:18.702Z,6.30
2023-02-01T19:25:47.547Z,6.20
2023-02-01T19:28:15.705Z,6.00
2023-02-01T19:30:42.862Z,5.90
2023-02-01T19:33:09.921Z,5.70
2023-02-01T19:35:36.726Z,5.40
2023-02-01T19:38:03.820Z,5.20
2023-02-01T19:40:31.080Z,5.10
2023-02-01T19:42:57.880Z,5.10
2023-02-01T19:45:25.237Z,5.10
2023-02-01T19:47:52.143Z,5.00
2023-02-01T19:50:21.813Z,5.00
2023-02-01T19:52:49.676Z,5.00
2023-02-01T19:55:16.526Z,4.80
2023-02-01T19:57:43.929Z,4.70
2023-02-01T20:00:17.083Z,4.70
2023-02-01T20:02:43.904Z,4.70
2023-02-01T20:05:11.784Z,4.70
2023-02-01T20:07:39.082Z,4.70
2023-02-01T20:10:07.412Z,4.60
2023-02-01T20:12:35.599Z,4.70
2023-02-01T20:15:04.333Z,4.70
2023-02-01T20:17:32.978Z,4.70
2023-02-01T20:19:59.784Z,4.70
2023-02-01T20:22:26.570Z,4.80
2023-02-01T20:24:53.442Z,4.80
2023-02-01T20:27:21.014Z,4.80
2023-02-01T20:29:47.719Z,4.80
2023-02-01T20:32:14.563Z,4.80
2023-02-01T20:34:41.299Z,4.70
2023-02-01T20:37:08.057Z,4.60
2023-02-01T20:39:35.000Z,4.70
2023-02-01T20:42:01.730Z,4.70
2023-02-01T20:44:28.439Z,4.70
2023-02-01T20:46:55.159Z,4.70
2023-02-01T20:49:24.872Z,4.70
2023-02-01T20:51:52.797Z,4.60
2023-02-01T20:54:19.610Z,4.60
2023-02-01T20:56:47.067Z,4.60
2023-02-01T20:59:14.297Z,4.50
2023-02-01T21:01:51.767Z,4.50
2023-02-01T21:04:29.417Z,4.50
2023-02-01T21:06:57.669Z,4.50
2023-02-01T21:09:25.215Z,4.40
2023-02-01T21:11:52.911Z,4.40
2023-02-01T21:14:20.341Z,4.30
2023-02-01T21:16:47.942Z,4.30
2023-02-01T21:19:15.086Z,4.40
2023-02-01T21:21:42.320Z,4.40
2023-02-01T21:24:09.179Z,4.40
2023-02-01T21:26:41.833Z,4.50
2023-02-01T21:29:11.093Z,4.50
2023-02-01T21:31:38.746Z,4.60
2023-02-01T21:34:06.832Z,4.60
2023-02-01T21:36:35.217Z,4.60
2023-02-01T21:39:04.488Z,4.60
2023-02-01T21:41:51.887Z,4.60
2023-02-01T21:44:18.769Z,4.60
2023-02-01T21:46:46.069Z,4.70
2023-02-01T21:49:13.225Z,4.70
2023-02-01T21:51:40.853Z,4.70
2023-02-01T21:54:09.644Z,4.80
2023-02-01T21:56:37.114Z,4.80
2023-02-01T21:59:04.169Z,4.80
2023-02-01T22:01:31.069Z,4.90
2023-02-01T22:03:57.880Z,4.90
2023-02-01T22:06:27.100Z,4.90
2023-02-01T22:08:54.030Z,4.80
2023-02-01T22:11:20.882Z,4.80
2023-02-01T22:13:48.207Z,4.80
2023-02-01T22:16:18.018Z,4.80
2023-02-01T22:18:45.710Z,4.80
2023-02-01T22:21:12.466Z,4.80
2023-02-01T22:23:39.228Z,4.70
2023-02-01T22:26:09.098Z,4.70
2023-02-01T22:28:36.899Z,4.70
2023-02-01T22:31:05.273Z,4.70
2023-02-01T22:33:33.687Z,4.80
2023-02-01T22:36:01.209Z,4.90
2023-02-01T22:38:31.327Z,4.90
2023-02-01T22:40:59.894Z,5.00
2023-02-01T22:43:27.441Z,5.00
2023-02-01T22:45:54.612Z,5.10
2023-02-01T22:48:21.353Z,5.10
2023-02-01T22:50:48.095Z,5.10
2023-02-01T22:53:14.781Z,5.10
2023-02-01T22:55:42.410Z,5.10
2023-02-01T22:58:09.149Z,5.10
2023-02-01T23:00:35.907Z,5.20
2023-02-01T23:03:02.713Z,5.20
2023-02-01T23:05:29.458Z,5.20
2023-02-01T23:07:56.189Z,5.20
2023-02-01T23:10:23.392Z,5.10
2023-02-01T23:12:50.419Z,5.10
2023-02-01T23:15:18.053Z,5.10
2023-02-01T23:17:45.504Z,5.10
2023-02-01T23:20:15.147Z,5.20
2023-02-01T23:22:42.851Z,5.20
2023-02-01T23:25:10.534Z,5.00
2023-02-01T23:27:37.322Z,5.00
2023-02-01T23:30:06.043Z,5.00
2023-02-01T23:32:34.046Z,5.00
2023-02-01T23:35:02.009Z,5.00
2023-02-01T23:37:29.046Z,4.90
2023-02-01T23:39:55.761Z,4.80
2023-02-01T23:42:22.546Z,4.80
2023-02-01T23:44:49.367Z,4.80
2023-02-01T23:47:16.192Z,4.80
2023-02-01T23:49:42.951Z,4.80
2023-02-01T23:52:09.860Z,4.70
2023-02-01T23:54:36.662Z,4.70
2023-02-01T23:57:03.480Z,4.60
2023-02-01T23:59:30.681Z,4.60
